Time;durP1;ratioP1;P1;durP2;ratioP2;P2;SDS_P1;SDS_P2;PMS_P1;PMS_P2;Temp;Humidity;BMP_temperature;BMP_pressure;BME280_temperature;BME280_humidity;BME280_pressure;Samples;Min_cycle;Max_cycle;Signal;HPM_P1;HPM_P2
2022/05/09 00:00:01;;;;;;;10.40;2.58;;;;;;;3.20;51.21;102906.81;5002086;28;20034;-78
2022/05/09 00:02:37;;;;;;;7.90;2.40;;;;;;;3.21;51.28;102910.31;5005101;28;20116;-79
2022/05/09 00:05:03;;;;;;;8.52;2.33;;;;;;;3.04;51.64;102900.44;4970089;28;20492;-78
2022/05/09 00:07:29;;;;;;;3.42;1.10;;;;;;;2.97;52.00;102904.56;4967970;28;20043;-80
2022/05/09 00:09:55;;;;;;;3.53;2.25;;;;;;;3.02;51.90;102901.22;4971213;28;20038;-78
2022/05/09 00:12:20;;;;;;;3.13;1.40;;;;;;;3.19;51.79;102902.50;4990721;28;20038;-79
2022/05/09 00:14:46;;;;;;;9.80;1.75;;;;;;;3.19;51.57;102899.94;4995822;28;20038;-78
2022/05/09 00:17:12;;;;;;;3.08;1.35;;;;;;;3.19;51.46;102893.03;4985128;28;20046;-79
2022/05/09 00:19:37;;;;;;;4.65;1.48;;;;;;;3.28;51.39;102902.72;5004694;28;20033;-78
2022/05/09 00:22:04;;;;;;;5.85;1.75;;;;;;;3.28;51.25;102899.28;4987022;28;20082;-78
2022/05/09 00:24:29;;;;;;;13.70;1.33;;;;;;;3.39;50.88;102895.25;4987759;28;20725;-78
2022/05/09 00:26:57;;;;;;;6.95;1.42;;;;;;;3.38;50.87;102890.91;4969053;28;20072;-78
2022/05/09 00:29:23;;;;;;;4.30;1.02;;;;;;;3.43;50.89;102894.47;4970695;28;20034;-79
2022/05/09 00:31:51;;;;;;;9.13;1.52;;;;;;;3.38;50.48;102893.47;4972204;28;20034;-79
2022/05/09 00:34:19;;;;;;;2.08;1.10;;;;;;;3.36;50.54;102892.59;4972511;28;20030;-78
2022/05/09 00:36:46;;;;;;;5.60;1.77;;;;;;;3.35;50.66;102896.00;4999471;28;20081;-79
2022/05/09 00:39:12;;;;;;;6.03;1.25;;;;;;;3.38;50.41;102896.97;4972650;28;20031;-79
2022/05/09 00:41:40;;;;;;;5.65;1.48;;;;;;;3.48;50.53;102892.88;4987066;28;20592;-77
2022/05/09 00:44:12;;;;;;;3.63;1.20;;;;;;;3.50;50.07;102896.34;4966572;28;20098;-79
2022/05/09 00:46:39;;;;;;;8.48;2.20;;;;;;;3.32;50.29;102896.81;4970758;28;20893;-79
2022/05/09 00:49:13;;;;;;;9.80;1.98;;;;;;;3.27;50.17;102898.41;4988689;28;20046;-78
2022/05/09 00:51:40;;;;;;;8.20;2.10;;;;;;;3.26;50.49;102896.63;4985736;28;20022;-79
2022/05/09 00:54:06;;;;;;;3.25;1.08;;;;;;;3.28;50.57;102904.44;4970559;28;20416;-79
2022/05/09 00:56:41;;;;;;;8.40;1.52;;;;;;;3.32;50.53;102896.81;4970481;28;20061;-78
2022/05/09 00:59:11;;;;;;;7.78;1.55;;;;;;;3.14;50.89;102894.66;4968519;28;20031;-78
2022/05/09 01:01:39;;;;;;;4.20;1.48;;;;;;;2.96;50.75;102891.63;4971384;28;20048;-79
2022/05/09 01:04:11;;;;;;;5.13;2.15;;;;;;;2.96;50.91;102886.47;4985862;28;20157;-79
2022/05/09 01:06:38;;;;;;;6.90;1.63;;;;;;;3.02;51.14;102889.19;4970695;28;20069;-79
2022/05/09 01:09:05;;;;;;;8.07;1.73;;;;;;;3.05;50.72;102894.44;4987341;28;20061;-78
2022/05/09 01:11:32;;;;;;;8.02;1.45;;;;;;;3.12;50.47;102898.03;4988494;28;20489;-79
2022/05/09 01:14:04;;;;;;;7.35;1.52;;;;;;;2.94;51.06;102889.00;4969589;28;20043;-78
2022/05/09 01:16:30;;;;;;;;;;;;;;;2.85;51.20;102887.94;4990404;28;20038;-78
2022/05/09 01:19:03;;;;;;;4.18;1.90;;;;;;;2.88;51.72;102882.81;4983599;28;19925;-80
2022/05/09 01:21:29;;;;;;;9.77;1.88;;;;;;;2.80;51.51;102886.91;4988939;28;20052;-79
2022/05/09 01:23:56;;;;;;;5.38;1.48;;;;;;;2.67;51.52;102883.19;4987582;28;20169;-79
2022/05/09 01:26:22;;;;;;;3.17;1.52;;;;;;;2.63;51.74;102871.88;4967499;28;20038;-80
2022/05/09 01:28:48;;;;;;;8.35;2.00;;;;;;;2.68;51.62;102885.78;4971984;28;20084;-78
2022/05/09 01:31:17;;;;;;;7.72;1.45;;;;;;;2.75;51.68;102882.50;4970153;28;20034;-78
2022/05/09 01:33:47;;;;;;;4.82;1.02;;;;;;;2.84;51.09;102870.66;4968640;28;20050;-79
2022/05/09 01:36:18;;;;;;;9.23;1.58;;;;;;;2.76;51.30;102871.34;5004827;28;20244;-79
2022/05/09 01:38:46;;;;;;;6.78;1.55;;;;;;;2.70;51.40;102873.78;4968225;28;20042;-79
2022/05/09 01:41:12;;;;;;;6.35;1.13;;;;;;;2.77;51.46;102875.66;4968035;28;20153;-78
2022/05/09 01:43:39;;;;;;;5.88;2.05;;;;;;;2.83;51.37;102868.94;4990053;28;20126;-79
2022/05/09 01:46:09;;;;;;;6.25;1.50;;;;;;;2.83;51.06;102868.94;4987351;28;20551;-78
2022/05/09 01:51:19;;;;;;;2.78;1.38;;;;;;;2.87;50.86;102866.47;4989818;28;20476;-78
2022/05/09 01:53:52;;;;;;;5.93;1.85;;;;;;;2.85;51.07;102867.25;4969403;28;20062;-78
2022/05/09 01:56:39;;;;;;;6.10;1.27;;;;;;;2.63;51.05;102858.13;4972089;28;20041;-79
2022/05/09 01:59:07;;;;;;;4.18;1.75;;;;;;;2.59;51.03;102869.19;4969284;28;20038;-78
2022/05/09 02:01:39;;;;;;;6.07;1.40;;;;;;;2.71;51.17;102864.31;4971307;28;20087;-79
2022/05/09 02:04:05;;;;;;;4.15;0.95;;;;;;;2.68;50.90;102869.41;4983273;28;20050;-79
2022/05/09 02:06:30;;;;;;;4.70;1.48;;;;;;;2.56;50.96;102870.00;5005545;28;20134;-80
2022/05/09 02:08:56;;;;;;;3.13;1.20;;;;;;;2.46;51.29;102878.31;4946180;28;20153;-79
2022/05/09 02:11:22;;;;;;;7.35;1.20;;;;;;;2.45;51.26;102874.88;5003983;28;20656;-78
2022/05/09 02:13:47;;;;;;;3.65;1.13;;;;;;;2.51;51.16;102866.41;5004779;28;20067;-79
2022/05/09 02:16:13;;;;;;;6.05;1.08;;;;;;;2.62;51.09;102874.41;4984711;28;20031;-79
2022/05/09 02:18:39;;;;;;;5.85;1.23;;;;;;;2.63;50.88;102876.19;4968349;28;20555;-79
2022/05/09 02:21:05;;;;;;;6.93;1.05;;;;;;;2.78;50.92;102881.75;4971653;28;20030;-78
2022/05/09 02:23:31;;;;;;;3.25;0.80;;;;;;;2.82;50.89;102880.09;4986812;28;20046;-78
2022/05/09 02:25:57;;;;;;;3.20;0.93;;;;;;;2.90;50.66;102888.91;5003624;28;20046;-78
2022/05/09 02:28:22;;;;;;;6.72;1.63;;;;;;;2.92;50.26;102882.06;4967725;28;20050;-78
2022/05/09 02:30:50;;;;;;;1.48;0.93;;;;;;;3.01;49.98;102881.41;4966789;28;20496;-79
2022/05/09 02:33:16;;;;;;;8.02;1.20;;;;;;;2.97;49.95;102888.22;4984310;28;20093;-79
2022/05/09 02:35:46;;;;;;;6.03;1.10;;;;;;;3.00;49.82;102887.41;4968569;28;20037;-79
2022/05/09 02:38:12;;;;;;;1.88;0.75;;;;;;;2.99;50.23;102876.19;4964045;28;20230;-79
2022/05/09 02:40:37;;;;;;;6.25;1.52;;;;;;;3.01;50.33;102884.88;4970045;28;20634;-78
2022/05/09 02:43:04;;;;;;;3.20;0.70;;;;;;;2.99;49.98;102876.19;4982833;28;20125;-79
2022/05/09 02:45:30;;;;;;;3.95;1.35;;;;;;;2.81;49.96;102865.44;4967209;28;20026;-78
2022/05/09 02:47:57;;;;;;;4.40;1.30;;;;;;;2.72;50.30;102872.13;4998077;28;20090;-79
2022/05/09 02:50:24;;;;;;;7.38;0.90;;;;;;;2.59;50.32;102867.47;4971844;28;20033;-78
2022/05/09 02:52:51;;;;;;;4.68;1.33;;;;;;;2.67;50.58;102867.69;4937175;28;20097;-78
2022/05/09 02:55:17;;;;;;;3.10;0.88;;;;;;;2.72;50.61;102861.78;4970855;28;20491;-79
2022/05/09 02:57:44;;;;;;;5.60;1.42;;;;;;;2.60;50.57;102860.59;4980266;28;20052;-79
2022/05/09 03:00:24;;;;;;;3.80;1.40;;;;;;;2.52;50.63;102863.88;4988644;28;20030;-79
2022/05/09 03:05:37;;;;;;;3.50;1.38;;;;;;;2.56;50.72;102859.66;5002991;28;20034;-78
2022/05/09 03:08:03;;;;;;;5.55;1.25;;;;;;;2.68;50.80;102865.13;4969735;28;20108;-78
2022/05/09 03:10:31;;;;;;;5.63;1.17;;;;;;;2.74;50.82;102859.25;4989291;28;22527;-79
2022/05/09 03:13:01;;;;;;;2.30;1.23;;;;;;;2.83;50.37;102858.59;4991000;28;20038;-79
2022/05/09 03:15:28;;;;;;;2.35;1.15;;;;;;;2.88;50.49;102857.00;4985845;28;20088;-79
2022/05/09 03:17:54;;;;;;;5.32;1.25;;;;;;;2.72;50.73;102856.63;4943848;28;20048;-79
2022/05/09 03:20:21;;;;;;;7.30;1.65;;;;;;;2.62;50.77;102849.47;4980922;28;20054;-79
2022/05/09 03:22:48;;;;;;;5.00;1.75;;;;;;;2.67;50.71;102854.78;4966247;28;20054;-78
2022/05/09 03:25:13;;;;;;;7.63;2.20;;;;;;;2.68;50.75;102856.50;4970324;28;20117;-79
2022/05/09 03:27:39;;;;;;;2.05;0.65;;;;;;;2.74;50.57;102852.38;5001761;28;20505;-78
2022/05/09 03:30:07;;;;;;;3.30;1.35;;;;;;;2.72;50.69;102853.16;4984917;28;20089;-79
2022/05/09 03:32:34;;;;;;;4.28;1.20;;;;;;;2.60;50.49;102845.09;4963188;28;20066;-78
2022/05/09 03:34:59;;;;;;;2.03;0.98;;;;;;;2.61;50.79;102846.88;4972374;28;20113;-78
2022/05/09 03:37:25;;;;;;;5.25;1.77;;;;;;;2.73;50.62;102850.63;4943982;28;20137;-79
2022/05/09 03:39:50;;;;;;;6.72;2.03;;;;;;;2.73;50.50;102847.16;4987633;28;20457;-78
2022/05/09 03:42:16;;;;;;;3.95;1.45;;;;;;;2.73;50.64;102835.16;4989357;28;20049;-79
2022/05/09 03:44:41;;;;;;;2.40;1.40;;;;;;;2.88;49.96;102837.19;4989695;28;20045;-78
2022/05/09 03:47:09;;;;;;;1.73;0.73;;;;;;;2.89;50.03;102838.97;5003424;28;21151;-79
2022/05/09 03:49:35;;;;;;;4.97;1.30;;;;;;;2.90;50.05;102839.81;4991181;28;20092;-79
2022/05/09 03:52:00;;;;;;;2.42;0.80;;;;;;;2.92;50.06;102844.19;4967921;28;20046;-79
2022/05/09 03:54:26;;;;;;;4.07;1.38;;;;;;;2.83;49.82;102837.94;4972123;28;20038;-79
2022/05/09 03:56:51;;;;;;;9.27;1.55;;;;;;;2.89;49.95;102825.16;4964463;28;20063;-79
2022/05/09 03:59:17;;;;;;;4.20;1.25;;;;;;;2.79;49.96;102830.94;5006649;28;20570;-79
2022/05/09 04:01:42;;;;;;;4.22;1.00;;;;;;;2.81;50.01;102829.28;4971550;28;20080;-79
2022/05/09 04:04:08;;;;;;;2.78;0.90;;;;;;;2.97;50.00;102826.22;4965881;28;20047;-78
2022/05/09 04:06:34;;;;;;;4.55;1.30;;;;;;;3.03;49.86;102826.34;4972009;28;20084;-79
2022/05/09 04:09:05;;;;;;;4.28;1.58;;;;;;;3.08;49.79;102823.88;4959265;28;20042;-78
2022/05/09 04:11:31;;;;;;;6.93;1.13;;;;;;;3.10;49.70;102823.06;4973017;28;20101;-79
2022/05/09 04:13:56;;;;;;;3.28;0.80;;;;;;;2.95;49.53;102825.28;4978840;28;20042;-79
2022/05/09 04:19:06;;;;;;;3.88;1.13;;;;;;;3.04;50.10;102825.50;4959899;28;20043;-79
2022/05/09 04:21:32;;;;;;;1.98;0.80;;;;;;;3.12;50.06;102828.28;4972049;28;20052;-79
2022/05/09 04:23:58;;;;;;;4.55;1.60;;;;;;;3.10;49.53;102827.38;4968732;28;20463;-81
2022/05/09 04:26:30;;;;;;;6.03;1.23;;;;;;;2.97;49.65;102819.31;4987417;28;20029;-78
2022/05/09 04:28:55;;;;;;;2.88;0.90;;;;;;;2.92;49.97;102817.50;4968335;28;20043;-78
2022/05/09 04:31:22;;;;;;;7.00;0.70;;;;;;;2.87;50.04;102822.56;4990052;28;20366;-79
2022/05/09 04:33:50;;;;;;;2.65;1.15;;;;;;;2.95;50.37;102823.56;4947834;28;20094;-78
2022/05/09 04:36:16;;;;;;;7.50;1.05;;;;;;;3.09;50.13;102823.91;4971852;28;20202;-79
2022/05/09 04:38:43;;;;;;;2.67;0.93;;;;;;;3.18;50.00;102816.38;4986848;28;20054;-78
2022/05/09 04:41:10;;;;;;;2.25;0.60;;;;;;;3.34;49.80;102814.16;4970088;28;20120;-79
2022/05/09 04:43:37;;;;;;;4.22;1.13;;;;;;;3.47;49.62;102821.31;5004037;28;20515;-78
2022/05/09 04:46:04;;;;;;;2.40;0.40;;;;;;;3.67;49.81;102815.66;4989252;28;20042;-79
2022/05/09 04:48:30;;;;;;;1.23;0.40;;;;;;;3.89;49.08;102815.25;4965456;28;20070;-79
2022/05/09 04:50:56;;;;;;;6.28;1.40;;;;;;;4.35;47.78;102818.66;4986945;28;20083;-79
2022/05/09 04:53:22;;;;;;;4.18;1.15;;;;;;;4.55;47.16;102816.41;4958767;28;20743;-79
2022/05/09 04:55:48;;;;;;;5.25;1.40;;;;;;;4.65;47.40;102812.25;4990497;28;20030;-79
2022/05/09 04:58:20;;;;;;;2.78;0.70;;;;;;;4.72;47.24;102811.50;4948330;28;20129;-79
2022/05/09 05:00:47;;;;;;;7.75;1.15;;;;;;;4.80;47.46;102812.47;4988803;28;20493;-79
2022/05/09 05:03:14;;;;;;;2.95;1.10;;;;;;;5.57;46.30;102813.56;4953939;28;20097;-79
2022/05/09 05:05:41;;;;;;;4.85;1.17;;;;;;;6.36;44.76;102811.81;4986112;28;21193;-79
2022/05/09 05:08:07;;;;;;;11.70;1.75;;;;;;;6.53;43.55;102818.03;4985487;28;20171;-79
2022/05/09 05:10:33;;;;;;;6.85;1.45;;;;;;;6.55;44.36;102812.81;4970711;28;20267;-79
2022/05/09 05:13:02;;;;;;;3.03;1.02;;;;;;;6.81;43.55;102810.44;4952046;28;20118;-79
2022/05/09 05:15:29;;;;;;;2.13;0.75;;;;;;;6.95;44.22;102813.09;4970778;28;20061;-79
2022/05/09 05:17:55;;;;;;;2.70;1.30;;;;;;;7.39;43.92;102815.94;4968500;28;20129;-79
2022/05/09 05:20:21;;;;;;;3.58;2.00;;;;;;;8.51;42.49;102816.19;4973681;28;20033;-79
2022/05/09 05:22:48;;;;;;;2.65;2.03;;;;;;;8.82;41.25;102818.81;4968613;28;20050;-79
2022/05/09 05:25:18;;;;;;;6.30;1.80;;;;;;;8.90;41.34;102817.06;4972862;28;20440;-79
2022/05/09 05:27:44;;;;;;;11.25;2.72;;;;;;;10.19;41.41;102823.44;4942611;28;20053;-80
2022/05/09 05:30:10;;;;;;;5.32;2.05;;;;;;;12.27;37.23;102817.59;4976354;28;20049;-79
2022/05/09 05:32:37;;;;;;;13.45;2.97;;;;;;;14.14;34.63;102820.00;4940807;28;20122;-79
2022/05/09 05:35:09;;;;;;;9.27;2.75;;;;;;;15.56;30.96;102815.31;4975108;28;20481;-78
2022/05/09 05:37:35;;;;;;;6.30;1.95;;;;;;;15.93;30.37;102816.81;4957808;28;20124;-82
2022/05/09 05:40:01;;;;;;;7.50;2.90;;;;;;;17.10;28.24;102818.13;4992764;28;20109;-81
2022/05/09 05:42:27;;;;;;;8.98;3.25;;;;;;;17.71;27.51;102816.72;4942887;28;20058;-81
2022/05/09 05:44:53;;;;;;;5.65;2.70;;;;;;;18.26;27.06;102803.94;4980330;28;20049;-83
2022/05/09 05:47:20;;;;;;;5.45;2.15;;;;;;;19.08;25.93;102810.03;4965335;28;20042;-82
2022/05/09 05:49:47;;;;;;;10.23;2.53;;;;;;;19.52;25.79;102806.22;4985082;28;20532;-79
2022/05/09 05:52:13;;;;;;;8.45;1.85;;;;;;;19.79;25.79;102804.09;4982014;28;20050;-79
2022/05/09 05:54:41;;;;;;;6.43;3.00;;;;;;;20.26;23.86;102792.03;4968014;28;20075;-79
2022/05/09 05:57:16;;;;;;;6.03;2.47;;;;;;;19.62;24.87;102799.59;4964407;28;20492;-78
2022/05/09 05:59:50;;;;;;;19.92;8.35;;;;;;;19.56;24.89;102797.22;4986880;28;20038;-79
2022/05/09 06:02:16;;;;;;;10.70;2.80;;;;;;;19.08;26.34;102795.94;4958801;28;20166;-79
2022/05/09 06:04:41;;;;;;;9.23;3.50;;;;;;;19.24;25.28;102796.09;4967821;28;20059;-80
2022/05/09 06:07:07;;;;;;;8.02;3.22;;;;;;;19.29;24.46;102794.06;4965753;28;20038;-78
2022/05/09 06:09:32;;;;;;;7.93;3.17;;;;;;;18.60;25.81;102802.47;4985946;28;20108;-80
2022/05/09 06:12:01;;;;;;;5.20;2.22;;;;;;;18.25;25.60;102802.19;4996958;28;20115;-78
2022/05/09 06:14:26;;;;;;;8.75;2.60;;;;;;;18.68;25.93;102801.22;4998844;28;20027;-79
2022/05/09 06:16:52;;;;;;;10.05;2.70;;;;;;;19.25;25.74;102797.78;4965402;28;20543;-79
2022/05/09 06:19:17;;;;;;;8.57;2.08;;;;;;;19.43;24.36;102790.75;4989256;28;20038;-79
2022/05/09 06:21:43;;;;;;;12.45;4.78;;;;;;;19.68;23.73;102788.69;5004292;28;20038;-79
2022/05/09 06:24:09;;;;;;;8.75;3.08;;;;;;;19.03;25.21;102800.56;4942209;28;20691;-79
2022/05/09 06:26:35;;;;;;;12.35;5.07;;;;;;;19.35;24.83;102798.25;4971589;28;20104;-79
2022/05/09 06:29:06;;;;;;;7.15;2.28;;;;;;;19.40;24.50;102793.56;4985001;28;20524;-80
2022/05/09 06:31:34;;;;;;;5.63;2.35;;;;;;;19.51;25.30;102794.78;4970108;28;20282;-79
2022/05/09 06:34:02;;;;;;;6.50;2.80;;;;;;;21.68;22.76;102794.13;4943589;28;20046;-78
2022/05/09 06:36:27;;;;;;;11.05;3.28;;;;;;;21.15;22.65;102796.22;4970773;28;20511;-79
2022/05/09 06:38:54;;;;;;;9.77;2.83;;;;;;;20.76;22.43;102788.56;4960082;28;20069;-78
2022/05/09 06:41:20;;;;;;;9.95;1.98;;;;;;;20.88;23.16;102798.53;5005036;28;20034;-78
2022/05/09 06:43:47;;;;;;;5.53;2.05;;;;;;;21.27;20.17;102789.34;4969037;28;20046;-77
2022/05/09 06:46:12;;;;;;;10.55;2.15;;;;;;;21.68;20.36;102786.16;5003857;28;20612;-78
2022/05/09 06:48:38;;;;;;;10.77;2.15;;;;;;;21.88;20.63;102790.31;4966903;28;20034;-80
2022/05/09 06:51:04;;;;;;;8.88;2.30;;;;;;;21.85;20.10;102781.69;4966830;28;20033;-79
2022/05/09 06:53:29;;;;;;;5.93;1.88;;;;;;;21.47;20.50;102779.41;4986670;28;20027;-78
2022/05/09 06:55:54;;;;;;;7.05;1.60;;;;;;;21.25;20.56;102772.59;4968349;28;20038;-77
2022/05/09 06:58:22;;;;;;;2.65;0.98;;;;;;;21.56;20.13;102770.91;4967831;28;20068;-79
2022/05/09 07:00:48;;;;;;;6.25;1.30;;;;;;;22.76;18.91;102766.47;4987877;28;20062;-78
2022/05/09 07:03:14;;;;;;;2.83;1.02;;;;;;;22.93;19.28;102766.25;4968250;28;20414;-78
2022/05/09 07:05:44;;;;;;;8.07;1.42;;;;;;;23.05;18.06;102761.09;4971715;28;20118;-78
2022/05/09 07:08:09;;;;;;;3.38;0.82;;;;;;;22.64;18.70;102768.06;4936005;28;20073;-79
2022/05/09 07:10:36;;;;;;;11.18;1.38;;;;;;;22.46;19.22;102759.38;4977911;28;20049;-78
2022/05/09 07:13:04;;;;;;;3.50;1.10;;;;;;;22.50;19.21;102754.75;4985637;28;20042;-79
2022/05/09 07:15:31;;;;;;;2.90;1.05;;;;;;;22.45;19.55;102755.03;4973483;28;20034;-78
2022/05/09 07:17:58;;;;;;;9.80;2.70;;;;;;;22.63;19.04;102753.03;4968235;28;20420;-78
2022/05/09 07:20:26;;;;;;;7.43;1.80;;;;;;;22.47;19.34;102750.47;4984357;28;20089;-77
2022/05/09 07:22:53;;;;;;;3.15;0.85;;;;;;;23.10;18.84;102743.84;4988287;28;20058;-75
2022/05/09 07:25:19;;;;;;;6.13;1.13;;;;;;;23.91;18.34;102744.84;4975455;28;20033;-77
2022/05/09 07:27:45;;;;;;;3.42;0.93;;;;;;;23.70;18.05;102745.31;4978442;28;20122;-76
2022/05/09 07:30:14;;;;;;;3.22;0.82;;;;;;;23.69;18.52;102746.25;4990331;28;20038;-79
2022/05/09 07:32:40;;;;;;;5.75;1.02;;;;;;;25.24;17.27;102742.56;4989807;28;20039;-78
2022/05/09 07:35:08;;;;;;;5.03;0.65;;;;;;;26.53;15.83;102743.47;4989118;28;20465;-78
2022/05/09 07:37:34;;;;;;;3.45;0.73;;;;;;;25.72;16.04;102739.91;4975105;28;20677;-79
2022/05/09 07:40:00;;;;;;;10.82;1.67;;;;;;;25.42;16.58;102738.56;4972825;28;20034;-80
2022/05/09 07:42:27;;;;;;;9.45;1.33;;;;;;;25.49;16.02;102736.28;4995987;28;20057;-76
2022/05/09 07:44:56;;;;;;;6.38;1.55;;;;;;;25.43;15.75;102734.06;4971272;28;20038;-80
2022/05/09 07:47:23;;;;;;;5.78;1.40;;;;;;;24.57;16.70;102732.25;4971664;28;20048;-77
2022/05/09 07:49:49;;;;;;;5.43;0.95;;;;;;;25.18;17.02;102725.16;4972707;28;20037;-77
2022/05/09 07:52:15;;;;;;;7.50;2.88;;;;;;;25.45;16.38;102729.44;4949548;28;20077;-80
2022/05/09 07:54:41;;;;;;;7.25;1.77;;;;;;;24.86;16.27;102732.81;4990913;28;20064;-77
2022/05/09 07:57:06;;;;;;;6.03;1.55;;;;;;;24.08;17.26;102728.53;4987248;28;20041;-78
2022/05/09 07:59:32;;;;;;;3.40;1.08;;;;;;;24.03;17.35;102730.63;4975145;28;20213;-78
2022/05/09 08:01:57;;;;;;;3.30;0.77;;;;;;;23.76;17.57;102725.31;4976326;28;20105;-77
2022/05/09 08:04:23;;;;;;;2.90;0.77;;;;;;;24.05;17.58;102734.06;4988532;28;20030;-77
2022/05/09 08:06:48;;;;;;;3.33;0.90;;;;;;;25.04;16.39;102726.19;4974972;28;20564;-77
2022/05/09 08:09:14;;;;;;;5.00;0.98;;;;;;;24.50;17.62;102737.16;4966530;28;20046;-79
2022/05/09 08:11:41;;;;;;;7.63;0.63;;;;;;;24.30;17.15;102729.69;5003414;28;20065;-77
2022/05/09 08:14:08;;;;;;;4.32;1.25;;;;;;;25.15;16.44;102733.44;4964220;28;20073;-79
2022/05/09 08:16:34;;;;;;;6.50;1.48;;;;;;;25.05;16.69;102727.03;4967118;28;20638;-76
2022/05/09 08:19:04;;;;;;;9.52;1.10;;;;;;;27.06;15.32;102724.06;4942174;28;20048;-77
2022/05/09 08:21:31;;;;;;;4.40;1.30;;;;;;;26.45;14.91;102724.47;4999280;28;20040;-77
2022/05/09 08:23:57;;;;;;;5.40;1.20;;;;;;;25.16;16.12;102723.59;4963981;28;20052;-78
2022/05/09 08:26:23;;;;;;;5.03;1.35;;;;;;;26.03;15.48;102725.00;4982591;28;20479;-78
2022/05/09 08:28:50;;;;;;;2.65;0.70;;;;;;;26.21;15.72;102714.72;4940224;28;20046;-77
2022/05/09 08:31:18;;;;;;;8.90;1.17;;;;;;;25.42;16.50;102714.47;4998680;28;20038;-78
2022/05/09 08:33:46;;;;;;;7.15;1.42;;;;;;;24.81;17.59;102718.94;4963646;28;20570;-77
2022/05/09 08:36:45;;;;;;;7.13;1.00;;;;;;;25.29;16.41;102712.84;4964359;28;20142;-77
2022/05/09 08:38:57;;;;;;;4.32;1.10;;;;;;;24.38;16.53;102711.28;4951408;28;20061;-77
2022/05/09 08:41:27;;;;;;;6.63;1.25;;;;;;;25.24;16.06;102715.81;4978790;28;20041;-78
2022/05/09 08:44:17;;;;;;;5.90;1.20;;;;;;;25.66;16.08;102710.91;4975532;28;20042;-79
2022/05/09 08:47:03;;;;;;;5.38;2.25;;;;;;;25.02;16.86;102720.09;4982676;28;20112;-80
2022/05/09 08:49:40;;;;;;;7.55;1.52;;;;;;;25.10;16.14;102714.16;4979663;28;20049;-78
2022/05/09 08:52:15;;;;;;;4.53;1.13;;;;;;;24.45;16.74;102709.94;4939091;28;20689;-79
2022/05/09 08:54:41;;;;;;;6.63;0.90;;;;;;;23.71;17.79;102711.44;4981041;28;20476;-76
2022/05/09 08:57:16;;;;;;;6.93;0.85;;;;;;;22.21;18.37;102711.25;4941649;28;20041;-78
2022/05/09 08:59:50;;;;;;;6.88;1.00;;;;;;;23.20;17.27;102704.94;4979621;28;20079;-77
2022/05/09 09:02:25;;;;;;;4.82;0.77;;;;;;;23.90;17.12;102701.25;4963813;28;20049;-77
2022/05/09 09:04:56;;;;;;;8.70;1.00;;;;;;;23.52;17.14;102707.34;4978728;28;20755;-78
2022/05/09 09:07:51;;;;;;;;;;;;;;;22.96;17.78;102699.44;4965389;28;20118;-80
2022/05/09 09:10:31;;;;;;;7.32;0.63;;;;;;;22.79;18.39;102707.63;4984806;28;20355;-77
2022/05/09 09:13:24;;;;;;;9.50;0.80;;;;;;;22.37;18.46;102709.34;4973105;28;20415;-77
2022/05/09 09:16:16;;;;;;;7.97;1.30;;;;;;;23.09;18.10;102693.28;4975140;28;20034;-79
2022/05/09 09:18:55;;;;;;;5.63;1.00;;;;;;;22.54;18.32;102693.16;4983992;28;20057;-77
2022/05/09 09:21:55;;;;;;;4.43;1.75;;;;;;;22.34;17.75;102698.88;4963159;28;20069;-79
2022/05/09 09:24:48;;;;;;;4.50;0.52;;;;;;;21.69;18.66;102685.88;4980470;28;20457;-77
2022/05/09 09:27:30;;;;;;;4.55;1.42;;;;;;;20.82;19.53;102697.88;4960542;28;20050;-78
2022/05/09 09:29:59;;;;;;;4.30;1.15;;;;;;;20.12;20.82;102698.00;4962036;28;20065;-78
2022/05/09 09:32:26;;;;;;;7.95;1.00;;;;;;;19.96;20.80;102686.47;4981010;28;20441;-79
2022/05/09 09:35:08;;;;;;;3.28;0.70;;;;;;;19.29;20.72;102690.69;4960161;28;20608;-80
2022/05/09 09:37:55;;;;;;;9.80;1.10;;;;;;;20.04;20.96;102684.28;4962989;28;20042;-77
2022/05/09 09:40:20;;;;;;;4.30;1.38;;;;;;;20.43;20.53;102677.84;4980272;28;20492;-76
2022/05/09 09:42:46;;;;;;;5.15;0.50;;;;;;;20.34;20.73;102686.31;4940751;28;20115;-77
2022/05/09 09:45:26;;;;;;;3.28;0.60;;;;;;;20.45;19.44;102688.38;4974427;28;20396;-77
2022/05/09 09:48:14;;;;;;;6.53;1.10;;;;;;;20.92;19.63;102672.53;4956405;28;20049;-76
2022/05/09 09:51:03;;;;;;;5.18;1.13;;;;;;;21.30;19.35;102669.47;4957077;28;20404;-77
2022/05/09 09:53:51;;;;;;;5.70;0.70;;;;;;;21.91;18.87;102672.16;4984120;28;20042;-76
2022/05/09 09:56:20;;;;;;;2.95;0.43;;;;;;;21.76;18.50;102666.81;4976000;28;20085;-77
2022/05/09 09:58:45;;;;;;;3.85;0.75;;;;;;;21.24;18.86;102672.50;4965463;28;20050;-79
2022/05/09 10:01:20;;;;;;;4.35;0.65;;;;;;;21.44;18.93;102662.50;4963752;28;20034;-78
2022/05/09 10:03:48;;;;;;;5.25;1.40;;;;;;;21.00;18.56;102663.25;4994931;28;20863;-79
2022/05/09 10:06:22;;;;;;;6.00;0.98;;;;;;;20.82;18.78;102663.34;4962909;28;20029;-77
2022/05/09 10:09:00;;;;;;;8.27;0.98;;;;;;;21.36;18.51;102653.19;4960429;28;20213;-78
2022/05/09 10:11:29;;;;;;;6.38;0.85;;;;;;;20.75;18.67;102646.00;4961573;28;20034;-78
2022/05/09 10:13:58;;;;;;;15.60;2.03;;;;;;;20.78;19.33;102648.50;4958951;28;20041;-76
2022/05/09 10:16:30;;;;;;;7.80;1.15;;;;;;;20.15;18.94;102643.03;4965152;28;20030;-76
2022/05/09 10:18:58;;;;;;;4.45;0.88;;;;;;;20.67;18.95;102637.63;4960811;28;20046;-77
2022/05/09 10:27:26;;;;;;;2.58;0.47;;;;;;;21.75;19.18;102635.81;4978326;28;20038;-75
2022/05/09 10:29:56;;;;;;;1.75;0.40;;;;;;;22.16;17.30;102621.84;4962378;28;20516;-78
2022/05/09 10:32:44;;;;;;;3.63;0.50;;;;;;;21.49;17.31;102615.25;4939449;28;20137;-77
2022/05/09 10:35:24;;;;;;;6.22;1.70;;;;;;;20.81;17.72;102626.22;4976616;28;20042;-76
2022/05/09 10:37:56;;;;;;;11.52;1.20;;;;;;;20.65;18.25;102612.94;4961668;28;20507;-75
2022/05/09 10:40:29;;;;;;;6.55;2.00;;;;;;;21.27;18.80;102616.50;4977567;28;20041;-77
2022/05/09 10:43:09;;;;;;;5.10;0.95;;;;;;;21.99;16.74;102608.66;4957776;28;20049;-78
2022/05/09 10:45:44;;;;;;;6.22;0.90;;;;;;;22.02;17.20;102603.16;4964642;28;20034;-77
2022/05/09 10:48:15;;;;;;;5.05;0.75;;;;;;;21.97;16.18;102607.91;4959329;28;20270;-77
2022/05/09 10:50:59;;;;;;;;;;;;;;;22.52;16.17;102593.81;4980278;28;20049;-76
2022/05/09 10:53:39;;;;;;;7.97;1.17;;;;;;;22.65;17.10;102593.91;4980572;28;20357;-77
2022/05/09 10:56:18;;;;;;;7.32;0.70;;;;;;;21.95;16.53;102585.84;4978858;28;20117;-78
2022/05/09 10:58:58;;;;;;;1.90;0.47;;;;;;;22.29;16.99;102583.75;4976488;28;20141;-78
2022/05/09 11:01:25;;;;;;;5.53;1.02;;;;;;;21.99;16.45;102582.06;4982563;28;20034;-75
2022/05/09 11:03:53;;;;;;;4.22;1.02;;;;;;;22.14;16.43;102582.94;4961607;28;20674;-77
2022/05/09 11:06:53;;;;;;;8.07;1.05;;;;;;;22.69;16.09;102570.59;4966051;28;20050;-78
2022/05/09 11:09:41;;;;;;;4.75;0.80;;;;;;;22.72;16.39;102579.25;4995713;28;20042;-78
2022/05/09 11:12:45;;;;;;;5.10;0.60;;;;;;;23.34;16.33;102562.69;4964215;28;20045;-77
2022/05/09 11:15:29;;;;;;;5.15;0.60;;;;;;;23.62;15.84;102571.47;4982963;28;20061;-77
2022/05/09 11:18:25;;;;;;;10.27;1.98;;;;;;;22.94;16.64;102556.47;4982020;28;20050;-75
2022/05/09 11:21:25;;;;;;;2.30;0.45;;;;;;;23.48;16.71;102560.91;4962301;28;20120;-74
2022/05/09 11:24:03;;;;;;;5.40;0.60;;;;;;;23.44;16.24;102551.41;4977421;28;20042;-76
2022/05/09 11:26:47;;;;;;;3.83;0.70;;;;;;;22.99;15.63;102544.56;4964220;28;20038;-78
2022/05/09 11:29:21;;;;;;;2.30;0.40;;;;;;;22.83;16.60;102554.56;4962733;28;20052;-77
2022/05/09 11:32:02;;;;;;;7.18;1.08;;;;;;;22.84;15.97;102540.25;4963419;28;20045;-77
2022/05/09 11:34:46;;;;;;;4.90;0.93;;;;;;;22.12;16.47;102544.91;4961365;28;20062;-76
2022/05/09 11:37:33;;;;;;;5.05;0.68;;;;;;;22.12;16.83;102528.94;4938736;28;20099;-76
2022/05/09 11:40:13;;;;;;;2.15;0.40;;;;;;;22.75;16.96;102531.06;4956955;28;20480;-76
2022/05/09 11:45:51;;;;;;;3.78;0.55;;;;;;;22.75;16.23;102519.53;4973507;28;20069;-78
2022/05/09 11:48:39;;;;;;;5.07;0.88;;;;;;;23.57;16.20;102528.25;4972147;28;20054;-77
2022/05/09 11:51:40;;;;;;;3.53;0.65;;;;;;;23.93;15.88;102515.94;4969030;28;20018;-77
2022/05/09 11:54:34;;;;;;;3.58;0.38;;;;;;;24.91;15.85;102514.06;4931797;28;20047;-75
2022/05/09 11:57:03;;;;;;;6.50;1.45;;;;;;;25.24;14.88;102517.81;4928359;28;20038;-75
2022/05/09 11:59:34;;;;;;;7.82;1.33;;;;;;;25.23;14.72;102500.06;4972548;28;20501;-77